sensor_id;sensor_type;location;lat;lon;timestamp;pressure;altitude;pressure_sealevel;temperature;humidity
60258;BME280;46115;44.484;11.314;2023-03-14T00:02:57;99692.31;;;11.75;90.90
60258;BME280;46115;44.484;11.314;2023-03-14T00:06:59;99688.38;;;11.68;91.34
60258;BME280;46115;44.484;11.314;2023-03-14T00:11:06;99673.56;;;11.92;89.89
60258;BME280;46115;44.484;11.314;2023-03-14T00:15:09;99650.25;;;11.70;89.59
60258;BME280;46115;44.484;11.314;2023-03-14T00:19:12;99661.59;;;12.12;87.25
60258;BME280;46115;44.484;11.314;2023-03-14T00:23:14;99655.47;;;12.37;85.45
60258;BME280;46115;44.484;11.314;2023-03-14T00:27:18;99608.38;;;12.66;83.07
60258;BME280;46115;44.484;11.314;2023-03-14T00:31:20;99550.03;;;12.66;81.05
60258;BME280;46115;44.484;11.314;2023-03-14T00:35:23;99627.69;;;13.41;79.24
60258;BME280;46115;44.484;11.314;2023-03-14T00:39:27;99588.94;;;13.38;77.75
60258;BME280;46115;44.484;11.314;2023-03-14T00:43:30;99608.38;;;13.74;75.65
60258;BME280;46115;44.484;11.314;2023-03-14T00:47:33;99570.47;;;13.61;74.98
60258;BME280;46115;44.484;11.314;2023-03-14T00:51:35;99588.78;;;14.21;72.71
60258;BME280;46115;44.484;11.314;2023-03-14T00:55:38;99509.28;;;13.73;72.03
60258;BME280;46115;44.484;11.314;2023-03-14T00:59:42;99547.47;;;14.06;72.15
60258;BME280;46115;44.484;11.314;2023-03-14T01:03:45;99517.03;;;14.10;71.04
60258;BME280;46115;44.484;11.314;2023-03-14T01:07:50;99502.31;;;14.28;70.41
60258;BME280;46115;44.484;11.314;2023-03-14T01:11:52;99519.47;;;14.35;70.72
60258;BME280;46115;44.484;11.314;2023-03-14T01:16:01;99485.16;;;14.10;71.33
60258;BME280;46115;44.484;11.314;2023-03-14T01:20:04;99482.38;;;14.12;70.82
60258;BME280;46115;44.484;11.314;2023-03-14T01:24:11;99388.69;;;13.65;70.07
60258;BME280;46115;44.484;11.314;2023-03-14T01:28:13;99443.00;;;14.05;69.47
60258;BME280;46115;44.484;11.314;2023-03-14T01:32:18;99460.63;;;14.18;69.70
60258;BME280;46115;44.484;11.314;2023-03-14T01:36:21;99414.97;;;14.13;68.11
60258;BME280;46115;44.484;11.314;2023-03-14T01:40:23;99324.97;;;13.54;68.13
60258;BME280;46115;44.484;11.314;2023-03-14T01:44:26;99329.31;;;13.66;67.46
60258;BME280;46115;44.484;11.314;2023-03-14T01:48:32;99421.84;;;14.26;66.71
60258;BME280;46115;44.484;11.314;2023-03-14T01:52:39;99344.13;;;13.91;65.49
60258;BME280;46115;44.484;11.314;2023-03-14T01:56:50;99354.47;;;14.05;65.60
60258;BME280;46115;44.484;11.314;2023-03-14T02:00:55;99305.16;;;13.69;65.99
60258;BME280;46115;44.484;11.314;2023-03-14T02:05:02;99358.91;;;14.27;64.97
60258;BME280;46115;44.484;11.314;2023-03-14T02:09:09;99303.78;;;13.86;64.65
60258;BME280;46115;44.484;11.314;2023-03-14T02:13:13;99372.66;;;14.21;64.76
60258;BME280;46115;44.484;11.314;2023-03-14T02:17:35;99365.44;;;14.23;64.53
60258;BME280;46115;44.484;11.314;2023-03-14T02:21:54;99366.28;;;14.23;63.94
60258;BME280;46115;44.484;11.314;2023-03-14T02:26:06;99325.59;;;14.12;63.72
60258;BME280;46115;44.484;11.314;2023-03-14T02:30:15;99348.53;;;14.24;63.54
60258;BME280;46115;44.484;11.314;2023-03-14T02:34:19;99329.28;;;14.20;63.38
60258;BME280;46115;44.484;11.314;2023-03-14T02:38:26;99277.84;;;13.89;63.32
60258;BME280;46115;44.484;11.314;2023-03-14T02:42:31;99319.09;;;14.04;63.22
60258;BME280;46115;44.484;11.314;2023-03-14T02:46:34;99336.91;;;14.25;62.65
60258;BME280;46115;44.484;11.314;2023-03-14T02:50:37;99327.59;;;14.19;61.69
60258;BME280;46115;44.484;11.314;2023-03-14T02:54:40;99341.28;;;14.15;61.50
60258;BME280;46115;44.484;11.314;2023-03-14T02:58:43;99296.19;;;13.92;60.82
60258;BME280;46115;44.484;11.314;2023-03-14T03:03:16;99309.22;;;13.95;59.82
60258;BME280;46115;44.484;11.314;2023-03-14T03:07:18;99336.09;;;14.13;59.00
60258;BME280;46115;44.484;11.314;2023-03-14T03:11:21;99345.75;;;14.14;58.81
60258;BME280;46115;44.484;11.314;2023-03-14T03:15:24;99345.50;;;14.17;58.44
60258;BME280;46115;44.484;11.314;2023-03-14T03:19:28;99253.25;;;13.65;57.77
60258;BME280;46115;44.484;11.314;2023-03-14T03:23:30;99312.28;;;14.12;57.69
60258;BME280;46115;44.484;11.314;2023-03-14T03:27:33;99272.63;;;13.99;57.43
60258;BME280;46115;44.484;11.314;2023-03-14T03:31:36;99329.28;;;14.20;57.68
60258;BME280;46115;44.484;11.314;2023-03-14T03:35:45;99306.97;;;14.12;56.82
60258;BME280;46115;44.484;11.314;2023-03-14T03:39:50;99289.81;;;14.16;56.56
60258;BME280;46115;44.484;11.314;2023-03-14T03:43:52;99303.09;;;14.59;56.67
60258;BME280;46115;44.484;11.314;2023-03-14T03:47:56;99209.38;;;13.93;57.16
60258;BME280;46115;44.484;11.314;2023-03-14T03:51:59;99264.56;;;13.78;58.50
60258;BME280;46115;44.484;11.314;2023-03-14T03:56:03;99255.13;;;13.96;56.67
60258;BME280;46115;44.484;11.314;2023-03-14T04:00:06;99276.06;;;14.11;56.05
60258;BME280;46115;44.484;11.314;2023-03-14T04:04:15;99240.53;;;13.91;55.76
60258;BME280;46115;44.484;11.314;2023-03-14T04:08:19;99254.28;;;14.17;55.32
60258;BME280;46115;44.484;11.314;2023-03-14T04:12:21;99192.72;;;13.80;55.77
60258;BME280;46115;44.484;11.314;2023-03-14T04:16:34;99255.81;;;13.98;55.56
60258;BME280;46115;44.484;11.314;2023-03-14T04:20:44;99235.34;;;13.89;55.95
60258;BME280;46115;44.484;11.314;2023-03-14T04:24:48;99185.88;;;13.77;55.83
60258;BME280;46115;44.484;11.314;2023-03-14T04:28:53;99235.50;;;14.09;55.49
60258;BME280;46115;44.484;11.314;2023-03-14T04:32:57;99163.88;;;13.54;56.15
60258;BME280;46115;44.484;11.314;2023-03-14T04:37:01;99152.69;;;13.71;56.25
60258;BME280;46115;44.484;11.314;2023-03-14T04:41:15;99197.13;;;14.01;56.74
60258;BME280;46115;44.484;11.314;2023-03-14T04:45:18;99174.38;;;14.09;56.40
60258;BME280;46115;44.484;11.314;2023-03-14T04:49:22;99145.25;;;13.86;55.76
60258;BME280;46115;44.484;11.314;2023-03-14T04:53:24;99163.38;;;13.81;56.62
60258;BME280;46115;44.484;11.314;2023-03-14T04:57:31;99135.38;;;13.88;56.57
60258;BME280;46115;44.484;11.314;2023-03-14T05:01:34;99153.25;;;14.07;56.67
60258;BME280;46115;44.484;11.314;2023-03-14T05:06:00;99124.75;;;13.88;56.82
60258;BME280;46115;44.484;11.314;2023-03-14T05:10:15;99104.63;;;13.74;57.55
60258;BME280;46115;44.484;11.314;2023-03-14T05:14:29;99082.44;;;13.43;58.11
60258;BME280;46115;44.484;11.314;2023-03-14T05:18:51;99014.53;;;13.41;57.56
60258;BME280;46115;44.484;11.314;2023-03-14T05:23:10;99036.66;;;13.51;57.66
60258;BME280;46115;44.484;11.314;2023-03-14T05:27:36;99060.25;;;13.45;57.42
60258;BME280;46115;44.484;11.314;2023-03-14T05:31:59;99086.72;;;13.88;56.05
60258;BME280;46115;44.484;11.314;2023-03-14T05:36:14;98969.34;;;13.52;56.98
60258;BME280;46115;44.484;11.314;2023-03-14T05:40:17;99044.31;;;13.86;57.66
60258;BME280;46115;44.484;11.314;2023-03-14T05:44:37;98899.88;;;13.05;58.20
60258;BME280;46115;44.484;11.314;2023-03-14T05:48:50;98977.41;;;13.92;58.42
60258;BME280;46115;44.484;11.314;2023-03-14T05:53:13;98985.53;;;13.91;58.93
60258;BME280;46115;44.484;11.314;2023-03-14T05:57:29;98997.84;;;13.92;59.35
60258;BME280;46115;44.484;11.314;2023-03-14T06:01:46;99044.72;;;14.02;58.93
60258;BME280;46115;44.484;11.314;2023-03-14T06:05:54;99063.84;;;13.96;60.25
60258;BME280;46115;44.484;11.314;2023-03-14T06:09:58;99119.47;;;14.19;60.47
60258;BME280;46115;44.484;11.314;2023-03-14T06:14:01;99077.44;;;14.24;60.71
60258;BME280;46115;44.484;11.314;2023-03-14T06:18:03;99052.38;;;14.47;60.77
60258;BME280;46115;44.484;11.314;2023-03-14T06:22:08;99015.09;;;14.78;60.02
60258;BME280;46115;44.484;11.314;2023-03-14T06:26:12;99023.66;;;14.91;58.90
60258;BME280;46115;44.484;11.314;2023-03-14T06:30:15;99111.31;;;15.81;58.45
60258;BME280;46115;44.484;11.314;2023-03-14T06:34:18;99161.19;;;15.50;58.21
60258;BME280;46115;44.484;11.314;2023-03-14T06:38:22;99124.47;;;15.53;58.90
60258;BME280;46115;44.484;11.314;2023-03-14T06:42:28;99120.34;;;15.20;59.00
60258;BME280;46115;44.484;11.314;2023-03-14T06:46:31;99126.75;;;15.58;59.69
60258;BME280;46115;44.484;11.314;2023-03-14T06:50:33;99103.66;;;14.99;60.58
60258;BME280;46115;44.484;11.314;2023-03-14T06:54:37;99163.91;;;15.69;59.61
60258;BME280;46115;44.484;11.314;2023-03-14T06:58:40;99148.06;;;15.68;59.62
60258;BME280;46115;44.484;11.314;2023-03-14T07:02:44;99151.44;;;15.70;60.82
60258;BME280;46115;44.484;11.314;2023-03-14T07:06:58;99054.38;;;15.14;60.61
60258;BME280;46115;44.484;11.314;2023-03-14T07:11:02;99139.03;;;15.49;60.48
60258;BME280;46115;44.484;11.314;2023-03-14T07:15:06;99091.88;;;15.61;59.60
60258;BME280;46115;44.484;11.314;2023-03-14T07:19:09;99128.28;;;15.60;60.67
60258;BME280;46115;44.484;11.314;2023-03-14T07:23:11;99075.66;;;15.14;60.91
60258;BME280;46115;44.484;11.314;2023-03-14T07:27:24;99083.38;;;15.17;62.24
60258;BME280;46115;44.484;11.314;2023-03-14T07:31:26;99119.13;;;15.34;61.99
60258;BME280;46115;44.484;11.314;2023-03-14T07:35:29;99117.47;;;15.52;62.38
60258;BME280;46115;44.484;11.314;2023-03-14T07:39:32;99072.16;;;15.23;61.90
60258;BME280;46115;44.484;11.314;2023-03-14T07:43:41;99124.78;;;15.60;61.60
60258;BME280;46115;44.484;11.314;2023-03-14T07:47:44;99118.63;;;15.69;62.00
60258;BME280;46115;44.484;11.314;2023-03-14T07:51:47;99103.78;;;15.67;62.07
60258;BME280;46115;44.484;11.314;2023-03-14T07:55:50;99106.19;;;17.10;59.53
60258;BME280;46115;44.484;11.314;2023-03-14T07:59:54;99089.44;;;16.90;58.72
60258;BME280;46115;44.484;11.314;2023-03-14T08:03:56;99027.25;;;17.43;55.87
60258;BME280;46115;44.484;11.314;2023-03-14T08:07:59;99010.81;;;18.25;54.16
60258;BME280;46115;44.484;11.314;2023-03-14T08:12:01;99079.47;;;17.73;55.27
60258;BME280;46115;44.484;11.314;2023-03-14T08:16:05;99024.81;;;17.50;56.14
60258;BME280;46115;44.484;11.314;2023-03-14T08:20:09;98991.56;;;17.08;56.28
60258;BME280;46115;44.484;11.314;2023-03-14T08:24:12;99018.66;;;16.68;58.03
60258;BME280;46115;44.484;11.314;2023-03-14T08:28:15;99030.44;;;16.56;57.91
60258;BME280;46115;44.484;11.314;2023-03-14T08:32:18;99059.34;;;16.23;59.84
60258;BME280;46115;44.484;11.314;2023-03-14T08:36:23;99019.72;;;15.91;60.77
60258;BME280;46115;44.484;11.314;2023-03-14T08:40:25;99058.97;;;16.09;60.83
60258;BME280;46115;44.484;11.314;2023-03-14T08:44:28;99077.53;;;16.47;60.38
60258;BME280;46115;44.484;11.314;2023-03-14T08:48:31;99072.38;;;16.27;61.30
60258;BME280;46115;44.484;11.314;2023-03-14T08:52:34;99018.34;;;16.34;59.82
60258;BME280;46115;44.484;11.314;2023-03-14T08:56:36;99064.59;;;18.40;55.57
60258;BME280;46115;44.484;11.314;2023-03-14T09:00:39;99079.50;;;17.99;56.10
60258;BME280;46115;44.484;11.314;2023-03-14T09:04:43;99097.03;;;17.12;59.26
60258;BME280;46115;44.484;11.314;2023-03-14T09:08:45;99083.19;;;19.42;53.53
60258;BME280;46115;44.484;11.314;2023-03-14T09:12:48;99058.13;;;20.16;50.53
60258;BME280;46115;44.484;11.314;2023-03-14T09:16:50;99099.34;;;22.93;45.67
60258;BME280;46115;44.484;11.314;2023-03-14T09:20:54;99040.72;;;19.63;50.02
60258;BME280;46115;44.484;11.314;2023-03-14T09:24:57;99053.38;;;20.35;49.60
60258;BME280;46115;44.484;11.314;2023-03-14T09:28:59;99027.50;;;22.85;43.56
60258;BME280;46115;44.484;11.314;2023-03-14T09:33:01;99082.94;;;21.98;44.61
60258;BME280;46115;44.484;11.314;2023-03-14T09:37:06;99074.38;;;20.15;49.19
60258;BME280;46115;44.484;11.314;2023-03-14T09:41:15;99015.44;;;19.58;49.85
60258;BME280;46115;44.484;11.314;2023-03-14T09:45:24;99036.94;;;24.24;40.80
60258;BME280;46115;44.484;11.314;2023-03-14T09:49:29;99064.44;;;23.06;42.18
60258;BME280;46115;44.484;11.314;2023-03-14T09:53:38;99065.22;;;24.91;38.53
60258;BME280;46115;44.484;11.314;2023-03-14T09:57:42;99038.66;;;22.53;43.00
60258;BME280;46115;44.484;11.314;2023-03-14T10:01:45;99030.47;;;22.76;43.42
60258;BME280;46115;44.484;11.314;2023-03-14T10:05:48;98970.78;;;21.15;45.44
60258;BME280;46115;44.484;11.314;2023-03-14T10:09:51;99024.16;;;20.56;48.52
60258;BME280;46115;44.484;11.314;2023-03-14T10:14:06;98947.22;;;19.52;50.15
60258;BME280;46115;44.484;11.314;2023-03-14T10:18:12;99007.38;;;19.82;50.37
60258;BME280;46115;44.484;11.314;2023-03-14T10:22:15;98981.84;;;19.05;51.87
60258;BME280;46115;44.484;11.314;2023-03-14T10:26:23;98987.44;;;18.01;54.67
60258;BME280;46115;44.484;11.314;2023-03-14T10:30:33;99016.81;;;18.53;54.44
60258;BME280;46115;44.484;11.314;2023-03-14T10:34:38;99018.50;;;19.05;53.55
60258;BME280;46115;44.484;11.314;2023-03-14T10:38:41;99010.34;;;19.22;54.13
60258;BME280;46115;44.484;11.314;2023-03-14T10:42:45;98976.63;;;18.87;54.79
60258;BME280;46115;44.484;11.314;2023-03-14T10:46:56;99004.19;;;18.72;55.19
60258;BME280;46115;44.484;11.314;2023-03-14T10:51:06;98974.72;;;18.29;56.75
60258;BME280;46115;44.484;11.314;2023-03-14T10:55:11;98961.81;;;18.17;56.69
60258;BME280;46115;44.484;11.314;2023-03-14T10:59:15;98949.00;;;18.02;57.29
60258;BME280;46115;44.484;11.314;2023-03-14T11:03:18;98963.34;;;18.27;57.64
60258;BME280;46115;44.484;11.314;2023-03-14T11:07:26;98934.75;;;18.20;57.53
60258;BME280;46115;44.484;11.314;2023-03-14T11:11:29;98954.38;;;18.02;58.41
60258;BME280;46115;44.484;11.314;2023-03-14T11:15:36;98949.56;;;18.48;57.59
60258;BME280;46115;44.484;11.314;2023-03-14T11:19:50;98954.28;;;18.12;57.75
60258;BME280;46115;44.484;11.314;2023-03-14T11:24:09;98946.81;;;17.98;58.28
60258;BME280;46115;44.484;11.314;2023-03-14T11:28:18;98937.41;;;18.20;57.99
60258;BME280;46115;44.484;11.314;2023-03-14T11:32:31;98943.06;;;17.83;58.89
60258;BME280;46115;44.484;11.314;2023-03-14T11:36:39;98926.22;;;18.24;57.95
60258;BME280;46115;44.484;11.314;2023-03-14T11:40:46;98923.84;;;17.61;58.84
60258;BME280;46115;44.484;11.314;2023-03-14T11:44:50;98940.09;;;18.20;59.21
60258;BME280;46115;44.484;11.314;2023-03-14T11:48:59;98935.66;;;18.02;59.44
60258;BME280;46115;44.484;11.314;2023-03-14T11:53:06;98915.00;;;18.13;58.73
60258;BME280;46115;44.484;11.314;2023-03-14T11:57:13;98896.06;;;18.56;58.04
60258;BME280;46115;44.484;11.314;2023-03-14T12:01:17;98901.69;;;18.95;57.92
60258;BME280;46115;44.484;11.314;2023-03-14T12:05:45;98900.34;;;18.75;58.58
60258;BME280;46115;44.484;11.314;2023-03-14T12:09:51;98894.00;;;19.09;57.88
60258;BME280;46115;44.484;11.314;2023-03-14T12:13:54;98893.31;;;19.23;56.92
60258;BME280;46115;44.484;11.314;2023-03-14T12:17:57;98870.53;;;18.62;57.60
60258;BME280;46115;44.484;11.314;2023-03-14T12:22:07;98852.16;;;18.91;57.57
60258;BME280;46115;44.484;11.314;2023-03-14T12:26:16;98873.06;;;19.20;56.78
60258;BME280;46115;44.484;11.314;2023-03-14T12:30:30;98865.88;;;18.88;56.90
60258;BME280;46115;44.484;11.314;2023-03-14T12:34:33;98793.56;;;18.39;58.61
60258;BME280;46115;44.484;11.314;2023-03-14T12:39:02;98877.59;;;18.87;59.19
60258;BME280;46115;44.484;11.314;2023-03-14T12:43:24;98846.97;;;18.74;59.17
60258;BME280;46115;44.484;11.314;2023-03-14T12:47:52;98862.72;;;19.09;58.84
60258;BME280;46115;44.484;11.314;2023-03-14T12:51:59;98847.13;;;18.96;58.45
60258;BME280;46115;44.484;11.314;2023-03-14T12:56:08;98843.78;;;19.19;58.52
60258;BME280;46115;44.484;11.314;2023-03-14T13:00:18;98840.75;;;19.06;59.55
60258;BME280;46115;44.484;11.314;2023-03-14T13:04:27;98835.75;;;18.94;58.95
60258;BME280;46115;44.484;11.314;2023-03-14T13:08:37;98821.72;;;18.76;59.59
60258;BME280;46115;44.484;11.314;2023-03-14T13:12:45;98832.06;;;18.87;60.46
60258;BME280;46115;44.484;11.314;2023-03-14T13:16:49;98811.19;;;18.75;60.79
60258;BME280;46115;44.484;11.314;2023-03-14T13:20:54;98820.31;;;18.48;60.24
60258;BME280;46115;44.484;11.314;2023-03-14T13:24:59;98838.53;;;18.44;61.06
60258;BME280;46115;44.484;11.314;2023-03-14T13:29:14;98832.69;;;18.41;61.82
60258;BME280;46115;44.484;11.314;2023-03-14T13:33:19;98808.06;;;18.29;61.21
60258;BME280;46115;44.484;11.314;2023-03-14T13:37:23;98816.94;;;18.29;61.85
60258;BME280;46115;44.484;11.314;2023-03-14T13:41:25;98828.84;;;18.43;61.71
60258;BME280;46115;44.484;11.314;2023-03-14T13:45:30;98835.66;;;18.37;61.64
60258;BME280;46115;44.484;11.314;2023-03-14T13:49:33;98821.00;;;17.91;63.19
60258;BME280;46115;44.484;11.314;2023-03-14T13:53:42;98853.44;;;18.55;61.80
60258;BME280;46115;44.484;11.314;2023-03-14T13:57:47;98853.72;;;18.35;63.15
60258;BME280;46115;44.484;11.314;2023-03-14T14:01:52;98853.53;;;18.37;62.40
60258;BME280;46115;44.484;11.314;2023-03-14T14:05:56;98865.63;;;18.41;63.47
60258;BME280;46115;44.484;11.314;2023-03-14T14:09:59;98877.44;;;18.38;63.23
60258;BME280;46115;44.484;11.314;2023-03-14T14:14:04;98810.00;;;18.02;63.20
60258;BME280;46115;44.484;11.314;2023-03-14T14:18:14;98868.47;;;18.56;63.29
60258;BME280;46115;44.484;11.314;2023-03-14T14:22:19;98851.19;;;18.26;63.74
60258;BME280;46115;44.484;11.314;2023-03-14T14:26:22;98867.38;;;18.16;64.24
60258;BME280;46115;44.484;11.314;2023-03-14T14:30:30;98856.94;;;18.47;62.88
60258;BME280;46115;44.484;11.314;2023-03-14T14:34:40;98857.75;;;18.39;63.52
60258;BME280;46115;44.484;11.314;2023-03-14T14:38:49;98856.09;;;18.47;62.80
60258;BME280;46115;44.484;11.314;2023-03-14T14:42:52;98795.44;;;17.97;63.32
60258;BME280;46115;44.484;11.314;2023-03-14T14:46:55;98830.13;;;18.23;63.26
60258;BME280;46115;44.484;11.314;2023-03-14T14:51:03;98861.41;;;18.38;62.90
60258;BME280;46115;44.484;11.314;2023-03-14T14:55:16;98858.66;;;18.64;62.15
60258;BME280;46115;44.484;11.314;2023-03-14T14:59:22;98817.44;;;18.33;61.23
60258;BME280;46115;44.484;11.314;2023-03-14T15:03:29;98843.91;;;18.52;61.06
60258;BME280;46115;44.484;11.314;2023-03-14T15:07:34;98835.53;;;18.39;61.82
60258;BME280;46115;44.484;11.314;2023-03-14T15:11:36;98835.22;;;18.66;61.33
60258;BME280;46115;44.484;11.314;2023-03-14T15:15:39;98826.34;;;18.50;61.24
60258;BME280;46115;44.484;11.314;2023-03-14T15:19:41;98818.34;;;18.66;60.12
60258;BME280;46115;44.484;11.314;2023-03-14T15:23:45;98822.69;;;18.91;58.38
60258;BME280;46115;44.484;11.314;2023-03-14T15:27:47;98815.09;;;18.30;59.52
60258;BME280;46115;44.484;11.314;2023-03-14T15:31:49;98804.84;;;18.09;60.09
60258;BME280;46115;44.484;11.314;2023-03-14T15:35:52;98804.84;;;18.09;60.16
60258;BME280;46115;44.484;11.314;2023-03-14T15:39:55;98764.47;;;17.70;60.94
60258;BME280;46115;44.484;11.314;2023-03-14T15:43:58;98796.41;;;17.80;61.80
60258;BME280;46115;44.484;11.314;2023-03-14T15:48:01;98794.53;;;17.72;62.23
60258;BME280;46115;44.484;11.314;2023-03-14T15:52:04;98789.28;;;17.62;62.89
60258;BME280;46115;44.484;11.314;2023-03-14T15:56:12;98765.38;;;17.53;62.51
60258;BME280;46115;44.484;11.314;2023-03-14T16:00:16;98791.72;;;17.48;62.98
60258;BME280;46115;44.484;11.314;2023-03-14T16:04:20;98760.47;;;17.40;63.13
60258;BME280;46115;44.484;11.314;2023-03-14T16:08:22;98779.34;;;17.72;62.39
60258;BME280;46115;44.484;11.314;2023-03-14T16:12:27;98771.19;;;17.48;63.80
60258;BME280;46115;44.484;11.314;2023-03-14T16:16:30;98740.00;;;17.57;63.52
60258;BME280;46115;44.484;11.314;2023-03-14T16:20:32;98789.13;;;17.64;63.73
60258;BME280;46115;44.484;11.314;2023-03-14T16:24:34;98778.50;;;17.72;63.33
60258;BME280;46115;44.484;11.314;2023-03-14T16:28:38;98752.25;;;17.67;61.50
60258;BME280;46115;44.484;11.314;2023-03-14T16:32:45;98720.25;;;17.41;62.08
60258;BME280;46115;44.484;11.314;2023-03-14T16:36:48;98713.94;;;17.17;63.54
60258;BME280;46115;44.484;11.314;2023-03-14T16:40:56;98776.91;;;17.27;64.36
60258;BME280;46115;44.484;11.314;2023-03-14T16:45:00;98761.38;;;17.23;64.56
60258;BME280;46115;44.484;11.314;2023-03-14T16:49:03;98760.81;;;17.11;64.96
60258;BME280;46115;44.484;11.314;2023-03-14T16:53:06;98773.00;;;17.13;65.37
60258;BME280;46115;44.484;11.314;2023-03-14T16:57:09;98794.19;;;17.41;64.92
60258;BME280;46115;44.484;11.314;2023-03-14T17:01:14;98714.56;;;16.76;64.57
60258;BME280;46115;44.484;11.314;2023-03-14T17:05:18;98791.72;;;16.96;65.49
60258;BME280;46115;44.484;11.314;2023-03-14T17:09:20;98815.72;;;17.39;64.82
60258;BME280;46115;44.484;11.314;2023-03-14T17:13:22;98718.84;;;16.51;66.33
60258;BME280;46115;44.484;11.314;2023-03-14T17:17:27;98786.81;;;16.65;66.71
60258;BME280;46115;44.484;11.314;2023-03-14T17:21:29;98800.88;;;16.67;66.69
60258;BME280;46115;44.484;11.314;2023-03-14T17:25:32;98830.19;;;16.85;66.75
60258;BME280;46115;44.484;11.314;2023-03-14T17:29:34;98745.91;;;16.21;66.81
60258;BME280;46115;44.484;11.314;2023-03-14T17:33:39;98779.78;;;16.29;67.15
60258;BME280;46115;44.484;11.314;2023-03-14T17:37:41;98781.88;;;16.35;66.73
60258;BME280;46115;44.484;11.314;2023-03-14T17:41:45;98831.03;;;16.86;65.68
60258;BME280;46115;44.484;11.314;2023-03-14T17:45:56;98853.19;;;16.50;67.10
60258;BME280;46115;44.484;11.314;2023-03-14T17:49:59;98853.25;;;16.59;67.08
60258;BME280;46115;44.484;11.314;2023-03-14T23:06:08;99071.94;;;13.42;97.81
60258;BME280;46115;44.484;11.314;2023-03-14T23:10:11;99007.00;;;13.14;97.15
60258;BME280;46115;44.484;11.314;2023-03-14T23:14:13;99074.53;;;13.64;96.80
60258;BME280;46115;44.484;11.314;2023-03-14T23:18:15;99068.31;;;13.54;96.39
60258;BME280;46115;44.484;11.314;2023-03-14T23:22:19;99043.66;;;13.31;96.30
60258;BME280;46115;44.484;11.314;2023-03-14T23:26:23;99078.78;;;13.56;96.08
60258;BME280;46115;44.484;11.314;2023-03-14T23:30:26;99067.34;;;13.55;96.09
60258;BME280;46115;44.484;11.314;2023-03-14T23:34:28;99059.69;;;13.62;95.85
60258;BME280;46115;44.484;11.314;2023-03-14T23:38:33;99004.16;;;13.06;96.01
60258;BME280;46115;44.484;11.314;2023-03-14T23:42:35;99089.75;;;13.62;96.29
60258;BME280;46115;44.484;11.314;2023-03-14T23:46:37;99018.34;;;13.27;93.71
60258;BME280;46115;44.484;11.314;2023-03-14T23:50:40;99095.69;;;13.76;93.71
60258;BME280;46115;44.484;11.314;2023-03-14T23:54:43;99069.22;;;13.64;93.06
60258;BME280;46115;44.484;11.314;2023-03-14T23:58:46;99075.88;;;13.59;92.56
